VEJS/IXW METAR and TAF weather

Enter ICAO airport designator
Station Type Date Time Source
VEJS METAR 2019/10/23 12:00 UTC NOAA

VEJS 231200Z 11006KT 3000 -RA SCT015 SCT025 FEW030CB OVC090 23/22 Q1009


Station Type Date Time Source
VEJS Decoded METAR 2019/10/23 12:00 UTC NOAA

Jamshedpur, India (VEJS) 22-49N 086-11E 142M
Oct 23, 2019 - 08:00 AM EDT / 2019.10.23 1200 UTC
Wind: from the ESE (110 degrees) at 7 MPH (6 KT):0
Visibility: 1 mile(s):0
Sky conditions: overcast
Weather: light rain; Cumulonimbus clouds observed
Temperature: 73 F (23 C)
Dew Point: 71 F (22 C)
Relative Humidity: 94%
Pressure (altimeter): 29.80 in. Hg (1009 hPa)
ob: VEJS 231200Z 11006KT 3000 -RA SCT015 SCT025 FEW030CB OVC090 23/22 Q1009
cycle: 12

Station Type Date Time Source
VEJS TAF 2009/11/01 09:00 UTC NOAA

TAF VEJS 010900Z 0112/0121 36004KT 2500 HZ FEW020 SCT025 SCT100
BECMG 0116/0118 00000KT 2000 HZ FEW018 SCT
BECMG 0119/0121 00000KT 1600 BR

Example: see airport list